sensor_id;sensor_type;location;lat;lon;timestamp;pressure;altitude;pressure_sealevel;temperature;humidity
41830;BME280;38614;43.472;23.936;2023-05-19T00:01:13;100430.25;;;11.60;100.00
41830;BME280;38614;43.472;23.936;2023-05-19T00:04:04;100441.63;;;11.55;100.00
41830;BME280;38614;43.472;23.936;2023-05-19T00:06:53;100457.50;;;11.58;100.00
41830;BME280;38614;43.472;23.936;2023-05-19T00:09:43;100461.94;;;11.63;100.00
41830;BME280;38614;43.472;23.936;2023-05-19T00:12:31;100434.47;;;11.38;100.00
41830;BME280;38614;43.472;23.936;2023-05-19T00:15:19;100427.59;;;11.32;100.00
41830;BME280;38614;43.472;23.936;2023-05-19T00:18:07;100415.72;;;11.32;100.00
41830;BME280;38614;43.472;23.936;2023-05-19T00:20:55;100443.13;;;11.53;100.00
41830;BME280;38614;43.472;23.936;2023-05-19T00:23:43;100441.81;;;11.47;100.00
41830;BME280;38614;43.472;23.936;2023-05-19T00:26:31;100440.03;;;11.54;100.00
41830;BME280;38614;43.472;23.936;2023-05-19T00:29:23;100437.50;;;11.49;100.00
41830;BME280;38614;43.472;23.936;2023-05-19T00:32:13;100440.28;;;11.49;100.00
41830;BME280;38614;43.472;23.936;2023-05-19T00:35:02;100427.25;;;11.34;100.00
41830;BME280;38614;43.472;23.936;2023-05-19T00:37:50;100443.31;;;11.28;100.00
41830;BME280;38614;43.472;23.936;2023-05-19T00:40:38;100429.84;;;11.11;100.00
41830;BME280;38614;43.472;23.936;2023-05-19T00:43:26;100454.44;;;11.16;100.00
41830;BME280;38614;43.472;23.936;2023-05-19T00:46:17;100443.22;;;11.09;100.00
41830;BME280;38614;43.472;23.936;2023-05-19T00:49:09;100433.41;;;11.11;100.00
41830;BME280;38614;43.472;23.936;2023-05-19T00:51:59;100418.31;;;10.93;100.00
41830;BME280;38614;43.472;23.936;2023-05-19T00:54:47;100451.50;;;11.09;100.00
41830;BME280;38614;43.472;23.936;2023-05-19T00:57:36;100413.03;;;10.88;100.00
41830;BME280;38614;43.472;23.936;2023-05-19T01:00:25;100434.75;;;11.18;100.00
41830;BME280;38614;43.472;23.936;2023-05-19T01:03:12;100405.72;;;10.80;100.00
41830;BME280;38614;43.472;23.936;2023-05-19T01:06:02;100434.81;;;10.90;100.00
41830;BME280;38614;43.472;23.936;2023-05-19T01:08:59;100431.97;;;11.02;100.00
41830;BME280;38614;43.472;23.936;2023-05-19T01:11:48;100441.41;;;11.01;100.00
41830;BME280;38614;43.472;23.936;2023-05-19T01:14:36;100442.09;;;10.98;100.00
41830;BME280;38614;43.472;23.936;2023-05-19T01:17:40;100441.22;;;10.94;100.00
41830;BME280;38614;43.472;23.936;2023-05-19T01:21:39;100441.13;;;10.90;100.00
41830;BME280;38614;43.472;23.936;2023-05-19T01:30:44;100439.97;;;10.91;100.00
41830;BME280;38614;43.472;23.936;2023-05-19T01:33:36;100433.53;;;10.71;100.00
41830;BME280;38614;43.472;23.936;2023-05-19T01:36:25;100440.38;;;10.77;100.00
41830;BME280;38614;43.472;23.936;2023-05-19T01:39:13;100448.59;;;10.74;100.00
41830;BME280;38614;43.472;23.936;2023-05-19T01:42:02;100440.91;;;10.67;100.00
41830;BME280;38614;43.472;23.936;2023-05-19T01:44:54;100441.97;;;10.63;100.00
41830;BME280;38614;43.472;23.936;2023-05-19T01:47:43;100456.66;;;10.67;100.00
41830;BME280;38614;43.472;23.936;2023-05-19T01:50:32;100452.22;;;10.62;100.00
41830;BME280;38614;43.472;23.936;2023-05-19T01:53:20;100461.75;;;10.65;100.00
41830;BME280;38614;43.472;23.936;2023-05-19T01:56:08;100452.53;;;10.61;100.00
41830;BME280;38614;43.472;23.936;2023-05-19T01:59:02;100439.50;;;10.45;100.00
41830;BME280;38614;43.472;23.936;2023-05-19T02:01:52;100456.47;;;10.60;100.00
41830;BME280;38614;43.472;23.936;2023-05-19T02:04:44;100456.38;;;10.56;100.00
41830;BME280;38614;43.472;23.936;2023-05-19T02:07:44;100460.38;;;10.59;100.00
41830;BME280;38614;43.472;23.936;2023-05-19T02:10:40;100454.31;;;10.53;100.00
41830;BME280;38614;43.472;23.936;2023-05-19T02:13:33;100471.88;;;10.61;100.00
41830;BME280;38614;43.472;23.936;2023-05-19T02:16:26;100472.38;;;10.63;100.00
41830;BME280;38614;43.472;23.936;2023-05-19T02:19:26;100470.84;;;10.65;100.00
41830;BME280;38614;43.472;23.936;2023-05-19T02:22:15;100469.59;;;10.63;100.00
41830;BME280;38614;43.472;23.936;2023-05-19T02:25:03;100476.28;;;10.62;100.00
41830;BME280;38614;43.472;23.936;2023-05-19T02:27:53;100475.47;;;10.61;100.00
41830;BME280;38614;43.472;23.936;2023-05-19T02:30:41;100475.16;;;10.50;100.00
41830;BME280;38614;43.472;23.936;2023-05-19T02:33:29;100478.88;;;10.42;100.00
41830;BME280;38614;43.472;23.936;2023-05-19T02:36:18;100465.88;;;10.31;100.00
41830;BME280;38614;43.472;23.936;2023-05-19T02:39:10;100492.78;;;10.46;100.00
41830;BME280;38614;43.472;23.936;2023-05-19T02:42:00;100491.41;;;10.40;100.00
41830;BME280;38614;43.472;23.936;2023-05-19T02:44:48;100495.47;;;10.42;100.00
41830;BME280;38614;43.472;23.936;2023-05-19T02:47:36;100501.53;;;10.48;100.00
41830;BME280;38614;43.472;23.936;2023-05-19T02:50:25;100492.44;;;10.47;100.00
41830;BME280;38614;43.472;23.936;2023-05-19T02:53:13;100500.13;;;10.54;100.00
41830;BME280;38614;43.472;23.936;2023-05-19T02:56:00;100479.16;;;10.25;100.00
41830;BME280;38614;43.472;23.936;2023-05-19T02:58:48;100504.28;;;10.48;100.00
41830;BME280;38614;43.472;23.936;2023-05-19T03:01:37;100498.09;;;10.39;100.00
41830;BME280;38614;43.472;23.936;2023-05-19T03:04:27;100478.00;;;10.26;100.00
41830;BME280;38614;43.472;23.936;2023-05-19T03:07:15;100510.88;;;10.43;100.00
41830;BME280;38614;43.472;23.936;2023-05-19T03:10:04;100520.50;;;10.49;100.00
41830;BME280;38614;43.472;23.936;2023-05-19T03:12:53;100513.88;;;10.38;100.00
41830;BME280;38614;43.472;23.936;2023-05-19T03:15:41;100516.63;;;10.38;100.00
41830;BME280;38614;43.472;23.936;2023-05-19T03:18:28;100524.91;;;10.38;100.00
41830;BME280;38614;43.472;23.936;2023-05-19T03:21:17;100531.16;;;10.35;100.00
41830;BME280;38614;43.472;23.936;2023-05-19T03:24:04;100522.75;;;10.32;100.00
41830;BME280;38614;43.472;23.936;2023-05-19T03:26:53;100520.56;;;10.37;100.00
41830;BME280;38614;43.472;23.936;2023-05-19T03:29:41;100509.84;;;10.36;100.00
41830;BME280;38614;43.472;23.936;2023-05-19T03:32:29;100472.47;;;10.02;100.00
41830;BME280;38614;43.472;23.936;2023-05-19T03:35:19;100534.34;;;10.49;100.00
41830;BME280;38614;43.472;23.936;2023-05-19T03:38:08;100525.16;;;10.45;100.00
41830;BME280;38614;43.472;23.936;2023-05-19T03:40:56;100533.41;;;10.57;100.00
41830;BME280;38614;43.472;23.936;2023-05-19T03:43:44;100527.16;;;10.61;100.00
41830;BME280;38614;43.472;23.936;2023-05-19T03:46:32;100538.44;;;10.68;100.00
41830;BME280;38614;43.472;23.936;2023-05-19T03:49:40;100509.09;;;10.63;100.00
41830;BME280;38614;43.472;23.936;2023-05-19T03:52:28;100520.69;;;10.69;100.00
41830;BME280;38614;43.472;23.936;2023-05-19T03:55:24;100511.94;;;10.67;100.00
41830;BME280;38614;43.472;23.936;2023-05-19T03:58:12;100547.81;;;10.91;100.00
41830;BME280;38614;43.472;23.936;2023-05-19T04:01:01;100547.19;;;10.98;100.00
41830;BME280;38614;43.472;23.936;2023-05-19T04:03:50;100538.13;;;11.13;100.00
41830;BME280;38614;43.472;23.936;2023-05-19T04:06:42;100530.41;;;11.19;100.00
41830;BME280;38614;43.472;23.936;2023-05-19T04:09:30;100550.50;;;11.31;100.00
41830;BME280;38614;43.472;23.936;2023-05-19T04:12:21;100531.28;;;11.23;100.00
41830;BME280;38614;43.472;23.936;2023-05-19T04:15:12;100553.81;;;11.53;100.00
41830;BME280;38614;43.472;23.936;2023-05-19T04:18:00;100549.72;;;11.62;100.00
41830;BME280;38614;43.472;23.936;2023-05-19T04:20:48;100552.44;;;11.75;100.00
41830;BME280;38614;43.472;23.936;2023-05-19T04:23:36;100557.81;;;11.83;100.00
41830;BME280;38614;43.472;23.936;2023-05-19T04:26:24;100529.31;;;11.83;100.00
41830;BME280;38614;43.472;23.936;2023-05-19T04:29:13;100545.03;;;12.10;100.00
41830;BME280;38614;43.472;23.936;2023-05-19T04:32:05;100555.56;;;12.20;100.00
41830;BME280;38614;43.472;23.936;2023-05-19T04:34:56;100554.81;;;12.39;100.00
41830;BME280;38614;43.472;23.936;2023-05-19T04:37:47;100539.09;;;12.47;100.00
41830;BME280;38614;43.472;23.936;2023-05-19T04:40:42;100547.13;;;12.68;100.00
41830;BME280;38614;43.472;23.936;2023-05-19T04:43:29;100548.94;;;12.79;100.00
41830;BME280;38614;43.472;23.936;2023-05-19T04:46:18;100549.25;;;12.94;100.00
41830;BME280;38614;43.472;23.936;2023-05-19T04:49:14;100545.94;;;13.07;100.00
41830;BME280;38614;43.472;23.936;2023-05-19T04:52:01;100555.88;;;13.28;100.00
41830;BME280;38614;43.472;23.936;2023-05-19T04:54:49;100560.81;;;13.38;100.00
41830;BME280;38614;43.472;23.936;2023-05-19T04:57:38;100560.50;;;13.62;100.00
41830;BME280;38614;43.472;23.936;2023-05-19T05:00:28;100558.66;;;13.70;100.00
41830;BME280;38614;43.472;23.936;2023-05-19T05:03:19;100560.06;;;13.83;100.00
41830;BME280;38614;43.472;23.936;2023-05-19T05:06:10;100544.06;;;14.00;100.00
41830;BME280;38614;43.472;23.936;2023-05-19T05:08:58;100569.09;;;14.26;100.00
41830;BME280;38614;43.472;23.936;2023-05-19T05:11:47;100574.38;;;14.35;100.00
41830;BME280;38614;43.472;23.936;2023-05-19T05:14:35;100555.81;;;14.42;100.00
41830;BME280;38614;43.472;23.936;2023-05-19T05:17:23;100561.31;;;14.62;100.00
41830;BME280;38614;43.472;23.936;2023-05-19T05:20:12;100561.63;;;14.87;100.00
41830;BME280;38614;43.472;23.936;2023-05-19T05:23:01;100568.28;;;15.12;100.00
41830;BME280;38614;43.472;23.936;2023-05-19T05:25:50;100568.38;;;15.19;100.00
41830;BME280;38614;43.472;23.936;2023-05-19T05:28:40;100560.53;;;15.28;100.00
41830;BME280;38614;43.472;23.936;2023-05-19T05:31:28;100550.28;;;15.36;100.00
41830;BME280;38614;43.472;23.936;2023-05-19T05:34:17;100560.94;;;15.30;100.00
41830;BME280;38614;43.472;23.936;2023-05-19T05:37:06;100556.50;;;15.26;100.00
41830;BME280;38614;43.472;23.936;2023-05-19T05:39:55;100547.56;;;15.43;100.00
41830;BME280;38614;43.472;23.936;2023-05-19T05:42:43;100571.56;;;15.95;100.00
41830;BME280;38614;43.472;23.936;2023-05-19T05:45:31;100566.81;;;16.00;100.00
41830;BME280;38614;43.472;23.936;2023-05-19T05:48:20;100558.16;;;16.12;100.00
41830;BME280;38614;43.472;23.936;2023-05-19T05:51:09;100537.06;;;16.14;100.00
41830;BME280;38614;43.472;23.936;2023-05-19T05:53:59;100563.59;;;16.49;100.00
41830;BME280;38614;43.472;23.936;2023-05-19T05:56:56;100557.22;;;16.52;100.00
41830;BME280;38614;43.472;23.936;2023-05-19T05:59:44;100554.06;;;16.53;100.00
41830;BME280;38614;43.472;23.936;2023-05-19T06:02:34;100552.06;;;16.50;100.00
41830;BME280;38614;43.472;23.936;2023-05-19T06:05:23;100560.44;;;16.54;100.00
41830;BME280;38614;43.472;23.936;2023-05-19T06:08:13;100552.84;;;16.47;100.00
41830;BME280;38614;43.472;23.936;2023-05-19T06:11:01;100566.19;;;16.79;100.00
41830;BME280;38614;43.472;23.936;2023-05-19T06:14:00;100567.03;;;16.87;100.00
41830;BME280;38614;43.472;23.936;2023-05-19T06:17:06;100562.72;;;17.07;100.00
41830;BME280;38614;43.472;23.936;2023-05-19T06:19:54;100570.69;;;17.12;100.00
41830;BME280;38614;43.472;23.936;2023-05-19T06:22:42;100563.63;;;17.32;100.00
41830;BME280;38614;43.472;23.936;2023-05-19T06:25:30;100571.22;;;17.43;100.00
41830;BME280;38614;43.472;23.936;2023-05-19T06:28:22;100564.03;;;17.45;100.00
41830;BME280;38614;43.472;23.936;2023-05-19T06:31:11;100571.31;;;17.71;100.00
41830;BME280;38614;43.472;23.936;2023-05-19T06:34:08;100547.34;;;17.84;100.00
41830;BME280;38614;43.472;23.936;2023-05-19T06:36:59;100569.31;;;18.07;100.00
41830;BME280;38614;43.472;23.936;2023-05-19T06:39:53;100554.53;;;18.17;100.00
41830;BME280;38614;43.472;23.936;2023-05-19T06:42:44;100540.97;;;17.87;100.00
41830;BME280;38614;43.472;23.936;2023-05-19T06:45:54;100552.94;;;18.16;100.00
41830;BME280;38614;43.472;23.936;2023-05-19T06:48:44;100528.97;;;18.05;100.00
41830;BME280;38614;43.472;23.936;2023-05-19T06:51:32;100563.72;;;18.25;100.00
41830;BME280;38614;43.472;23.936;2023-05-19T06:54:26;100575.66;;;18.50;100.00
41830;BME280;38614;43.472;23.936;2023-05-19T06:57:15;100572.44;;;18.73;100.00
41830;BME280;38614;43.472;23.936;2023-05-19T07:00:04;100567.19;;;18.86;100.00
41830;BME280;38614;43.472;23.936;2023-05-19T07:02:55;100575.50;;;19.07;100.00
41830;BME280;38614;43.472;23.936;2023-05-19T07:05:43;100546.59;;;19.32;100.00
41830;BME280;38614;43.472;23.936;2023-05-19T07:08:31;100581.31;;;19.56;100.00
41830;BME280;38614;43.472;23.936;2023-05-19T07:11:22;100570.59;;;19.36;100.00
41830;BME280;38614;43.472;23.936;2023-05-19T07:14:10;100560.03;;;19.62;100.00
41830;BME280;38614;43.472;23.936;2023-05-19T07:16:57;100573.13;;;19.79;100.00
41830;BME280;38614;43.472;23.936;2023-05-19T07:19:46;100570.00;;;19.70;100.00
41830;BME280;38614;43.472;23.936;2023-05-19T07:22:35;100562.44;;;19.63;100.00
41830;BME280;38614;43.472;23.936;2023-05-19T07:25:26;100568.31;;;19.80;100.00
41830;BME280;38614;43.472;23.936;2023-05-19T07:28:20;100565.63;;;20.17;100.00
41830;BME280;38614;43.472;23.936;2023-05-19T07:31:11;100573.06;;;20.35;100.00
41830;BME280;38614;43.472;23.936;2023-05-19T07:33:58;100552.84;;;20.54;100.00
41830;BME280;38614;43.472;23.936;2023-05-19T07:36:49;100545.72;;;20.49;100.00
41830;BME280;38614;43.472;23.936;2023-05-19T07:39:38;100534.59;;;20.73;100.00
41830;BME280;38614;43.472;23.936;2023-05-19T07:42:28;100526.84;;;20.50;100.00
41830;BME280;38614;43.472;23.936;2023-05-19T07:45:18;100552.78;;;20.61;100.00
41830;BME280;38614;43.472;23.936;2023-05-19T07:48:06;100552.97;;;20.43;100.00
41830;BME280;38614;43.472;23.936;2023-05-19T07:50:54;100559.66;;;20.94;100.00
41830;BME280;38614;43.472;23.936;2023-05-19T07:53:42;100557.00;;;20.80;100.00
41830;BME280;38614;43.472;23.936;2023-05-19T07:56:30;100559.31;;;21.19;100.00
41830;BME280;38614;43.472;23.936;2023-05-19T07:59:18;100519.31;;;20.77;100.00
41830;BME280;38614;43.472;23.936;2023-05-19T08:02:11;100564.63;;;21.14;100.00
41830;BME280;38614;43.472;23.936;2023-05-19T08:05:06;100551.81;;;21.40;100.00
41830;BME280;38614;43.472;23.936;2023-05-19T08:07:57;100559.69;;;21.79;100.00
41830;BME280;38614;43.472;23.936;2023-05-19T08:10:45;100566.91;;;22.03;100.00
41830;BME280;38614;43.472;23.936;2023-05-19T08:13:33;100561.28;;;22.03;100.00
41830;BME280;38614;43.472;23.936;2023-05-19T08:16:23;100564.22;;;21.96;100.00
41830;BME280;38614;43.472;23.936;2023-05-19T08:19:11;100536.66;;;21.87;100.00
41830;BME280;38614;43.472;23.936;2023-05-19T08:21:59;100540.75;;;22.30;100.00
41830;BME280;38614;43.472;23.936;2023-05-19T08:24:50;100557.22;;;22.55;100.00
41830;BME280;38614;43.472;23.936;2023-05-19T08:27:38;100537.88;;;22.96;100.00
41830;BME280;38614;43.472;23.936;2023-05-19T08:30:28;100547.28;;;23.10;100.00
41830;BME280;38614;43.472;23.936;2023-05-19T08:33:19;100544.59;;;22.83;100.00
41830;BME280;38614;43.472;23.936;2023-05-19T08:36:08;100552.28;;;23.02;100.00
41830;BME280;38614;43.472;23.936;2023-05-19T08:38:55;100530.16;;;23.00;100.00
41830;BME280;38614;43.472;23.936;2023-05-19T08:41:46;100551.69;;;22.47;100.00
41830;BME280;38614;43.472;23.936;2023-05-19T08:44:35;100528.31;;;21.80;100.00
41830;BME280;38614;43.472;23.936;2023-05-19T08:47:24;100566.34;;;22.82;100.00
41830;BME280;38614;43.472;23.936;2023-05-19T08:50:23;100563.59;;;23.18;100.00
41830;BME280;38614;43.472;23.936;2023-05-19T08:53:22;100562.72;;;22.62;100.00
41830;BME280;38614;43.472;23.936;2023-05-19T08:56:33;100563.16;;;22.80;100.00
41830;BME280;38614;43.472;23.936;2023-05-19T08:59:21;100575.75;;;22.95;100.00
41830;BME280;38614;43.472;23.936;2023-05-19T09:02:10;100553.53;;;22.77;100.00
41830;BME280;38614;43.472;23.936;2023-05-19T09:05:02;100572.03;;;23.38;100.00
41830;BME280;38614;43.472;23.936;2023-05-19T09:07:54;100549.94;;;22.97;100.00
41830;BME280;38614;43.472;23.936;2023-05-19T09:10:42;100542.94;;;23.05;100.00
41830;BME280;38614;43.472;23.936;2023-05-19T09:13:30;100564.06;;;23.33;100.00
41830;BME280;38614;43.472;23.936;2023-05-19T09:16:18;100539.06;;;23.87;100.00
41830;BME280;38614;43.472;23.936;2023-05-19T09:19:12;100551.69;;;24.32;100.00
41830;BME280;38614;43.472;23.936;2023-05-19T09:22:20;100567.72;;;24.51;100.00
41830;BME280;38614;43.472;23.936;2023-05-19T09:25:23;100543.72;;;24.43;100.00
41830;BME280;38614;43.472;23.936;2023-05-19T09:28:11;100570.44;;;24.84;100.00
41830;BME280;38614;43.472;23.936;2023-05-19T09:31:08;100565.97;;;24.99;100.00
41830;BME280;38614;43.472;23.936;2023-05-19T09:33:57;100561.88;;;25.00;100.00
41830;BME280;38614;43.472;23.936;2023-05-19T09:36:51;100565.34;;;24.79;100.00
41830;BME280;38614;43.472;23.936;2023-05-19T09:39:40;100551.06;;;24.69;100.00
41830;BME280;38614;43.472;23.936;2023-05-19T09:42:27;100559.03;;;24.58;100.00
41830;BME280;38614;43.472;23.936;2023-05-19T09:45:19;100546.66;;;24.68;100.00
41830;BME280;38614;43.472;23.936;2023-05-19T09:48:07;100560.22;;;24.73;100.00
41830;BME280;38614;43.472;23.936;2023-05-19T09:50:55;100555.84;;;25.14;100.00
41830;BME280;38614;43.472;23.936;2023-05-19T09:53:46;100540.38;;;25.44;100.00
41830;BME280;38614;43.472;23.936;2023-05-19T09:56:34;100525.44;;;24.77;100.00
41830;BME280;38614;43.472;23.936;2023-05-19T09:59:23;100546.94;;;25.28;100.00
41830;BME280;38614;43.472;23.936;2023-05-19T10:02:16;100545.47;;;25.37;100.00
41830;BME280;38614;43.472;23.936;2023-05-19T10:05:09;100516.84;;;25.47;100.00
41830;BME280;38614;43.472;23.936;2023-05-19T10:08:00;100544.25;;;25.50;100.00
41830;BME280;38614;43.472;23.936;2023-05-19T10:10:49;100513.91;;;25.38;100.00
41830;BME280;38614;43.472;23.936;2023-05-19T10:13:37;100535.28;;;25.26;97.48
41830;BME280;38614;43.472;23.936;2023-05-19T10:16:26;100519.84;;;25.02;100.00
41830;BME280;38614;43.472;23.936;2023-05-19T10:19:19;100533.25;;;25.27;100.00
41830;BME280;38614;43.472;23.936;2023-05-19T10:22:07;100533.16;;;25.69;100.00
41830;BME280;38614;43.472;23.936;2023-05-19T10:24:55;100528.06;;;25.89;97.29
41830;BME280;38614;43.472;23.936;2023-05-19T10:30:39;100487.28;;;25.86;100.00
41830;BME280;38614;43.472;23.936;2023-05-19T10:33:46;100522.84;;;25.62;100.00
41830;BME280;38614;43.472;23.936;2023-05-19T10:36:48;100480.41;;;25.62;100.00
41830;BME280;38614;43.472;23.936;2023-05-19T10:39:41;100492.97;;;25.61;100.00
41830;BME280;38614;43.472;23.936;2023-05-19T10:42:49;100499.25;;;26.03;97.68
41830;BME280;38614;43.472;23.936;2023-05-19T10:45:53;100465.25;;;26.16;100.00
41830;BME280;38614;43.472;23.936;2023-05-19T10:48:45;100464.50;;;26.59;98.69
41830;BME280;38614;43.472;23.936;2023-05-19T10:51:33;100490.22;;;26.65;98.50
41830;BME280;38614;43.472;23.936;2023-05-19T10:54:39;100511.88;;;26.24;98.59
41830;BME280;38614;43.472;23.936;2023-05-19T10:57:27;100460.00;;;25.67;100.00
41830;BME280;38614;43.472;23.936;2023-05-19T11:00:29;100500.22;;;26.57;100.00
41830;BME280;38614;43.472;23.936;2023-05-19T11:03:17;100487.69;;;27.11;100.00
41830;BME280;38614;43.472;23.936;2023-05-19T11:09:17;100509.06;;;26.81;100.00
41830;BME280;38614;43.472;23.936;2023-05-19T11:12:19;100469.88;;;26.88;90.83
41830;BME280;38614;43.472;23.936;2023-05-19T11:15:13;100497.44;;;26.09;88.62
41830;BME280;38614;43.472;23.936;2023-05-19T11:18:03;100470.59;;;25.41;91.91
41830;BME280;38614;43.472;23.936;2023-05-19T11:21:11;100446.00;;;25.13;100.00
41830;BME280;38614;43.472;23.936;2023-05-19T11:23:59;100490.72;;;25.81;100.00
41830;BME280;38614;43.472;23.936;2023-05-19T11:26:47;100438.19;;;25.80;100.00
41830;BME280;38614;43.472;23.936;2023-05-19T11:29:40;100482.25;;;26.16;99.53
41830;BME280;38614;43.472;23.936;2023-05-19T11:32:34;100482.84;;;26.33;100.00
41830;BME280;38614;43.472;23.936;2023-05-19T11:35:23;100484.47;;;26.21;97.98
41830;BME280;38614;43.472;23.936;2023-05-19T11:38:27;100481.72;;;26.30;86.73
41830;BME280;38614;43.472;23.936;2023-05-19T11:41:54;100430.94;;;26.36;94.80
41830;BME280;38614;43.472;23.936;2023-05-19T11:44:43;100467.22;;;26.28;87.05
41830;BME280;38614;43.472;23.936;2023-05-19T11:47:36;100428.25;;;26.54;92.88
41830;BME280;38614;43.472;23.936;2023-05-19T11:50:44;100424.69;;;26.63;93.36
41830;BME280;38614;43.472;23.936;2023-05-19T11:53:33;100448.50;;;27.18;93.56
41830;BME280;38614;43.472;23.936;2023-05-19T11:56:22;100457.13;;;27.15;88.72
41830;BME280;38614;43.472;23.936;2023-05-19T11:59:10;100463.59;;;27.15;87.53
41830;BME280;38614;43.472;23.936;2023-05-19T12:02:22;100451.94;;;26.91;85.53
41830;BME280;38614;43.472;23.936;2023-05-19T12:05:21;100452.69;;;26.61;85.87
41830;BME280;38614;43.472;23.936;2023-05-19T12:08:14;100457.41;;;26.55;93.77
41830;BME280;38614;43.472;23.936;2023-05-19T12:11:03;100446.66;;;26.72;100.00
41830;BME280;38614;43.472;23.936;2023-05-19T12:13:54;100445.03;;;26.92;85.75
41830;BME280;38614;43.472;23.936;2023-05-19T12:16:47;100448.56;;;26.53;79.95
41830;BME280;38614;43.472;23.936;2023-05-19T12:19:35;100425.59;;;26.60;82.48
41830;BME280;38614;43.472;23.936;2023-05-19T12:22:23;100431.34;;;26.69;76.64
41830;BME280;38614;43.472;23.936;2023-05-19T12:25:11;100446.69;;;26.59;76.10
41830;BME280;38614;43.472;23.936;2023-05-19T12:28:00;100420.34;;;26.71;80.41
41830;BME280;38614;43.472;23.936;2023-05-19T12:30:52;100427.63;;;27.03;79.80
41830;BME280;38614;43.472;23.936;2023-05-19T12:33:44;100422.56;;;26.76;88.23
41830;BME280;38614;43.472;23.936;2023-05-19T12:36:32;100426.47;;;26.26;84.26
41830;BME280;38614;43.472;23.936;2023-05-19T12:39:20;100421.59;;;27.01;81.39
41830;BME280;38614;43.472;23.936;2023-05-19T12:42:10;100421.78;;;27.07;80.08
41830;BME280;38614;43.472;23.936;2023-05-19T12:45:10;100414.06;;;27.07;87.78
41830;BME280;38614;43.472;23.936;2023-05-19T12:48:02;100414.28;;;27.22;85.46
41830;BME280;38614;43.472;23.936;2023-05-19T12:50:51;100407.06;;;26.68;79.15
41830;BME280;38614;43.472;23.936;2023-05-19T12:53:46;100408.75;;;26.56;82.38
41830;BME280;38614;43.472;23.936;2023-05-19T12:56:34;100406.06;;;27.15;81.01
41830;BME280;38614;43.472;23.936;2023-05-19T12:59:27;100377.41;;;26.82;79.16
41830;BME280;38614;43.472;23.936;2023-05-19T13:02:25;100389.72;;;27.19;78.68
41830;BME280;38614;43.472;23.936;2023-05-19T13:05:16;100384.81;;;26.88;76.15
41830;BME280;38614;43.472;23.936;2023-05-19T13:08:04;100398.63;;;27.08;81.00
41830;BME280;38614;43.472;23.936;2023-05-19T13:10:56;100389.13;;;27.42;80.63
41830;BME280;38614;43.472;23.936;2023-05-19T13:13:48;100399.03;;;26.97;80.25
41830;BME280;38614;43.472;23.936;2023-05-19T13:16:35;100350.19;;;26.93;80.83
41830;BME280;38614;43.472;23.936;2023-05-19T13:19:27;100387.03;;;27.74;80.31
41830;BME280;38614;43.472;23.936;2023-05-19T13:22:15;100364.56;;;27.58;78.26
41830;BME280;38614;43.472;23.936;2023-05-19T13:25:03;100383.22;;;27.09;73.83
41830;BME280;38614;43.472;23.936;2023-05-19T13:27:54;100391.66;;;27.00;77.67
41830;BME280;38614;43.472;23.936;2023-05-19T13:30:42;100382.91;;;27.16;75.26
41830;BME280;38614;43.472;23.936;2023-05-19T13:33:31;100385.50;;;27.02;79.32
41830;BME280;38614;43.472;23.936;2023-05-19T13:36:19;100308.91;;;26.52;76.35
41830;BME280;38614;43.472;23.936;2023-05-19T13:39:06;100357.44;;;26.94;75.63
41830;BME280;38614;43.472;23.936;2023-05-19T13:42:03;100318.72;;;27.01;76.50
41830;BME280;38614;43.472;23.936;2023-05-19T13:44:56;100310.72;;;26.68;75.60
41830;BME280;38614;43.472;23.936;2023-05-19T13:47:44;100358.31;;;26.73;75.01
41830;BME280;38614;43.472;23.936;2023-05-19T13:50:32;100370.81;;;26.94;76.49
41830;BME280;38614;43.472;23.936;2023-05-19T13:53:22;100355.97;;;26.50;75.13
41830;BME280;38614;43.472;23.936;2023-05-19T13:56:18;100362.72;;;26.74;78.25
41830;BME280;38614;43.472;23.936;2023-05-19T13:59:06;100366.50;;;26.80;74.66
41830;BME280;38614;43.472;23.936;2023-05-19T14:01:55;100372.69;;;26.88;83.28
41830;BME280;38614;43.472;23.936;2023-05-19T14:04:42;100373.84;;;26.99;81.18
41830;BME280;38614;43.472;23.936;2023-05-19T14:07:30;100378.19;;;27.13;80.60
41830;BME280;38614;43.472;23.936;2023-05-19T14:10:21;100381.06;;;26.91;79.14
41830;BME280;38614;43.472;23.936;2023-05-19T14:13:09;100383.75;;;26.64;77.88
41830;BME280;38614;43.472;23.936;2023-05-19T14:16:19;100352.34;;;26.49;80.25
41830;BME280;38614;43.472;23.936;2023-05-19T14:19:12;100373.34;;;26.61;81.90
41830;BME280;38614;43.472;23.936;2023-05-19T14:22:03;100404.34;;;27.17;81.52
41830;BME280;38614;43.472;23.936;2023-05-19T14:24:54;100383.47;;;27.02;76.68
41830;BME280;38614;43.472;23.936;2023-05-19T14:27:42;100398.94;;;26.79;79.58
41830;BME280;38614;43.472;23.936;2023-05-19T14:30:30;100448.19;;;25.34;71.44
41830;BME280;38614;43.472;23.936;2023-05-19T14:33:19;100358.78;;;24.18;75.21
41830;BME280;38614;43.472;23.936;2023-05-19T14:36:10;100432.25;;;24.02;76.40
41830;BME280;38614;43.472;23.936;2023-05-19T14:38:57;100418.16;;;23.21;79.24
41830;BME280;38614;43.472;23.936;2023-05-19T14:41:45;100406.81;;;22.88;80.29
41830;BME280;38614;43.472;23.936;2023-05-19T14:44:35;100440.56;;;22.52;85.00
41830;BME280;38614;43.472;23.936;2023-05-19T14:47:23;100439.84;;;22.08;91.53